createdAt,value
2018-08-17T00:00:07.490Z,44.92
2018-08-17T00:02:35.788Z,44.97
2018-08-17T00:05:04.138Z,44.94
2018-08-17T00:07:32.388Z,45.30
2018-08-17T00:10:00.590Z,45.67
2018-08-17T00:12:28.756Z,45.25
2018-08-17T00:14:57.151Z,45.60
2018-08-17T00:17:25.397Z,44.71
2018-08-17T00:19:54.007Z,44.81
2018-08-17T00:22:22.271Z,45.15
2018-08-17T00:24:50.631Z,45.70
2018-08-17T00:27:19.500Z,44.99
2018-08-17T00:29:47.747Z,45.91
2018-08-17T00:32:16.012Z,45.41
2018-08-17T00:34:44.170Z,45.87
2018-08-17T00:37:12.614Z,45.86
2018-08-17T00:39:40.991Z,45.83
2018-08-17T00:42:09.154Z,45.40
2018-08-17T00:44:37.576Z,45.93
2018-08-17T00:47:06.187Z,45.91
2018-08-17T00:49:34.698Z,45.92
2018-08-17T00:52:03.229Z,46.13
2018-08-17T00:54:31.530Z,45.64
2018-08-17T00:56:59.990Z,46.07
2018-08-17T00:59:29.112Z,45.89
2018-08-17T01:01:57.536Z,46.34
2018-08-17T01:04:25.784Z,46.37
2018-08-17T01:06:54.402Z,46.26
2018-08-17T01:09:22.703Z,45.64
2018-08-17T01:11:51.190Z,45.65
2018-08-17T01:14:20.227Z,45.35
2018-08-17T01:16:48.605Z,45.87
2018-08-17T01:19:17.554Z,45.28
2018-08-17T01:21:46.120Z,45.40
2018-08-17T01:24:14.371Z,45.59
2018-08-17T01:26:42.666Z,45.20
2018-08-17T01:29:11.371Z,46.10
2018-08-17T01:31:39.654Z,45.58
2018-08-17T01:34:07.972Z,44.99
2018-08-17T01:36:36.190Z,45.34
2018-08-17T01:39:08.536Z,44.64
2018-08-17T01:41:36.900Z,45.70
2018-08-17T01:44:05.562Z,45.64
2018-08-17T01:46:33.937Z,45.72
2018-08-17T01:49:02.459Z,46.50
2018-08-17T01:51:31.894Z,46.56
2018-08-17T01:54:00.080Z,47.06
2018-08-17T01:56:28.448Z,46.30
2018-08-17T01:58:56.955Z,46.78
2018-08-17T02:01:25.203Z,46.66
2018-08-17T02:03:53.538Z,46.58
2018-08-17T02:06:21.898Z,46.58
2018-08-17T02:08:50.230Z,46.50
2018-08-17T02:11:18.530Z,46.29
2018-08-17T02:13:46.775Z,46.49
2018-08-17T02:16:16.024Z,46.86
2018-08-17T02:18:44.239Z,47.18
2018-08-17T02:21:12.731Z,47.53
2018-08-17T02:23:41.149Z,47.31
2018-08-17T02:26:09.760Z,46.64
2018-08-17T02:28:37.965Z,47.47
2018-08-17T02:31:06.193Z,46.39
2018-08-17T02:33:34.418Z,47.13
2018-08-17T02:36:02.877Z,47.54
2018-08-17T02:38:31.273Z,47.53
2018-08-17T02:40:59.762Z,47.09
2018-08-17T02:43:28.126Z,47.08
2018-08-17T02:45:56.649Z,47.43
2018-08-17T02:48:25.131Z,46.81
2018-08-17T02:50:53.440Z,46.91
2018-08-17T02:53:21.813Z,47.46
2018-08-17T02:55:50.175Z,47.84
2018-08-17T02:58:18.413Z,47.72
2018-08-17T03:00:53.543Z,47.66
2018-08-17T03:03:21.833Z,48.12
2018-08-17T03:05:50.053Z,47.57
2018-08-17T03:08:18.490Z,47.85
2018-08-17T03:10:47.385Z,47.88
2018-08-17T03:13:16.013Z,47.75
2018-08-17T03:15:44.249Z,48.33
2018-08-17T03:18:12.592Z,48.13
2018-08-17T03:20:40.734Z,48.33
2018-08-17T03:23:09.124Z,48.76
2018-08-17T03:25:37.378Z,48.80
2018-08-17T03:28:05.930Z,48.36
2018-08-17T03:30:34.200Z,48.98
2018-08-17T03:33:02.558Z,48.91
2018-08-17T03:35:31.126Z,49.66
2018-08-17T03:38:00.216Z,49.80
2018-08-17T03:40:28.709Z,49.42
2018-08-17T03:42:57.812Z,49.16
2018-08-17T03:45:26.057Z,49.11
2018-08-17T03:47:54.432Z,50.06
2018-08-17T03:50:22.677Z,49.69
2018-08-17T03:52:51.076Z,49.87
2018-08-17T03:55:19.248Z,50.19
2018-08-17T03:57:47.636Z,50.76
2018-08-17T04:00:20.377Z,50.19
2018-08-17T04:02:48.867Z,50.09
2018-08-17T04:05:17.087Z,50.33
2018-08-17T04:07:45.259Z,50.74
2018-08-17T04:10:13.476Z,50.72
2018-08-17T04:12:41.691Z,50.76
2018-08-17T04:15:10.335Z,51.20
2018-08-17T04:17:38.945Z,50.37
2018-08-17T04:20:08.350Z,51.41
2018-08-17T04:22:36.497Z,52.20
2018-08-17T04:25:04.975Z,51.79
2018-08-17T04:27:33.385Z,51.59
2018-08-17T04:30:03.803Z,52.35
2018-08-17T04:32:31.970Z,52.16
2018-08-17T04:35:00.194Z,51.47
2018-08-17T04:37:29.940Z,51.90
2018-08-17T04:39:58.216Z,51.51
2018-08-17T04:42:26.549Z,51.43
2018-08-17T04:44:54.914Z,51.56
2018-08-17T04:47:23.059Z,51.28
2018-08-17T04:49:51.741Z,51.06
2018-08-17T04:52:20.117Z,51.81
2018-08-17T04:54:48.650Z,51.47
2018-08-17T04:57:16.875Z,51.87
2018-08-17T04:59:46.042Z,52.31
2018-08-17T05:02:14.226Z,52.23
2018-08-17T05:04:43.175Z,52.10
2018-08-17T05:07:11.840Z,52.33
2018-08-17T05:09:40.206Z,52.25
2018-08-17T05:12:09.046Z,52.39
2018-08-17T05:14:37.443Z,52.14
2018-08-17T05:17:05.645Z,52.00
2018-08-17T05:19:33.861Z,52.37
2018-08-17T05:22:01.984Z,52.19
2018-08-17T05:24:31.072Z,52.21
2018-08-17T05:26:59.342Z,51.33
2018-08-17T05:29:27.838Z,51.61
2018-08-17T05:31:56.316Z,51.92
2018-08-17T05:34:25.601Z,51.11
2018-08-17T05:36:53.828Z,50.41
2018-08-17T05:39:22.047Z,50.59
2018-08-17T05:41:50.279Z,50.54
2018-08-17T05:44:18.540Z,49.70
2018-08-17T05:46:46.701Z,48.49
2018-08-17T05:49:14.889Z,45.78
2018-08-17T05:51:43.159Z,43.33
2018-08-17T05:54:11.412Z,41.42
2018-08-17T05:56:39.752Z,39.27
2018-08-17T05:59:08.020Z,37.88
2018-08-17T06:01:36.251Z,36.65
2018-08-17T06:04:04.859Z,35.28
2018-08-17T06:06:33.218Z,33.68
2018-08-17T06:09:05.659Z,32.61
2018-08-17T06:11:35.721Z,32.18
2018-08-17T06:14:05.207Z,30.80
2018-08-17T06:16:33.847Z,31.16
2018-08-17T06:19:02.154Z,31.03
2018-08-17T06:21:30.451Z,30.25
2018-08-17T06:23:58.686Z,29.04
2018-08-17T06:26:27.188Z,29.07
2018-08-17T06:28:55.344Z,28.29
2018-08-17T06:31:25.176Z,26.53
2018-08-17T06:33:53.524Z,26.69
2018-08-17T06:36:21.860Z,26.57
2018-08-17T06:38:50.155Z,25.26
2018-08-17T06:41:18.347Z,23.74
2018-08-17T06:43:46.677Z,23.62
2018-08-17T06:46:14.881Z,24.26
2018-08-17T06:48:43.304Z,23.43
2018-08-17T06:51:11.591Z,22.47
2018-08-17T06:53:39.701Z,22.98
2018-08-17T06:56:07.966Z,21.39
2018-08-17T06:58:36.230Z,21.72
2018-08-17T07:01:04.555Z,21.06
2018-08-17T07:03:32.774Z,22.99
2018-08-17T07:06:01.060Z,21.20
2018-08-17T07:08:29.961Z,20.26
2018-08-17T07:10:58.356Z,20.99
2018-08-17T07:13:27.237Z,21.21
2018-08-17T07:15:55.736Z,20.75
2018-08-17T07:18:23.900Z,19.93
2018-08-17T07:20:52.152Z,19.41
2018-08-17T07:23:20.295Z,20.02
2018-08-17T07:25:48.716Z,18.82
2018-08-17T07:28:17.335Z,18.17
2018-08-17T07:30:45.452Z,17.96
2018-08-17T07:33:13.776Z,19.29
2018-08-17T07:35:41.976Z,17.66
2018-08-17T07:38:10.194Z,17.59
2018-08-17T07:40:38.605Z,17.41
2018-08-17T07:43:07.458Z,16.57
2018-08-17T07:45:35.801Z,17.13
2018-08-17T07:48:04.303Z,16.29
2018-08-17T07:50:32.572Z,16.45
2018-08-17T07:53:01.263Z,17.21
2018-08-17T07:55:29.589Z,16.51
2018-08-17T07:58:00.835Z,17.17
2018-08-17T08:00:29.214Z,17.21
2018-08-17T08:02:57.593Z,16.23
2018-08-17T08:05:25.861Z,16.22
2018-08-17T08:07:54.118Z,16.39
2018-08-17T08:10:22.327Z,17.45
2018-08-17T08:12:50.975Z,17.31
2018-08-17T08:15:19.226Z,15.65
2018-08-17T08:17:47.464Z,14.56
2018-08-17T08:20:33.628Z,13.92
2018-08-17T08:23:20.813Z,13.71
2018-08-17T08:25:50.109Z,14.31
2018-08-17T08:28:20.533Z,13.48
2018-08-17T08:30:49.238Z,12.61
2018-08-17T08:33:18.089Z,12.93
2018-08-17T08:35:47.466Z,12.10
2018-08-17T08:38:16.114Z,11.67
2018-08-17T08:40:44.985Z,10.72
2018-08-17T08:43:14.203Z,10.27
2018-08-17T08:45:42.586Z,10.74
2018-08-17T08:48:11.028Z,10.81
2018-08-17T08:50:39.710Z,10.74
2018-08-17T08:53:09.842Z,10.25
2018-08-17T08:55:38.208Z,8.89
2018-08-17T08:58:07.520Z,8.84
2018-08-17T09:00:36.758Z,9.11
2018-08-17T09:03:06.431Z,8.42
2018-08-17T09:05:37.358Z,8.75
2018-08-17T09:08:06.394Z,7.77
2018-08-17T09:10:35.226Z,7.88
2018-08-17T09:13:04.317Z,7.41
2018-08-17T09:15:32.451Z,7.44
2018-08-17T09:18:00.843Z,7.78
2018-08-17T09:20:29.181Z,7.46
2018-08-17T09:22:57.627Z,7.22
2018-08-17T09:25:25.958Z,7.37
2018-08-17T09:27:54.290Z,7.64
2018-08-17T09:30:27.260Z,7.60
2018-08-17T09:32:55.745Z,7.00
2018-08-17T09:35:24.069Z,7.01
2018-08-17T09:37:52.673Z,6.81
2018-08-17T09:40:20.942Z,6.84
2018-08-17T09:42:49.272Z,7.74
2018-08-17T09:45:17.471Z,7.12
2018-08-17T09:47:45.626Z,7.12
2018-08-17T09:50:14.818Z,7.65
2018-08-17T09:52:43.421Z,8.29
2018-08-17T09:55:11.863Z,7.39
2018-08-17T09:57:40.087Z,6.59
2018-08-17T10:00:09.905Z,6.04
2018-08-17T10:02:43.876Z,6.57
2018-08-17T10:05:17.699Z,7.13
2018-08-17T10:07:51.731Z,6.01
2018-08-17T10:10:22.601Z,5.71
2018-08-17T10:12:51.665Z,5.45
2018-08-17T10:15:21.073Z,6.16
2018-08-17T10:17:49.505Z,6.22
2018-08-17T10:20:19.020Z,6.74
2018-08-17T10:22:47.248Z,6.96
2018-08-17T10:25:17.336Z,7.01
2018-08-17T10:27:47.464Z,7.15
2018-08-17T10:30:16.320Z,7.22
2018-08-17T10:32:49.360Z,7.46
2018-08-17T10:35:24.926Z,7.46
2018-08-17T10:37:55.258Z,7.38
2018-08-17T10:40:24.325Z,8.86
2018-08-17T10:42:52.795Z,7.79
2018-08-17T10:45:22.531Z,6.59
2018-08-17T10:47:51.270Z,6.95
2018-08-17T10:50:20.625Z,6.41
2018-08-17T10:52:50.736Z,7.90
2018-08-17T10:55:19.507Z,8.40
2018-08-17T10:57:47.889Z,8.12
2018-08-17T11:00:20.305Z,11.10
2018-08-17T11:02:48.752Z,11.94
2018-08-17T11:05:17.800Z,11.51
2018-08-17T11:07:47.230Z,9.50
2018-08-17T11:10:15.606Z,10.11
2018-08-17T11:12:45.127Z,11.50
2018-08-17T11:15:13.698Z,11.68
2018-08-17T11:17:43.848Z,8.83
2018-08-17T11:20:14.050Z,8.49
2018-08-17T11:22:42.840Z,8.65
2018-08-17T11:25:11.694Z,9.13
2018-08-17T11:27:40.000Z,6.99
2018-08-17T11:30:12.574Z,7.37
2018-08-17T11:32:42.004Z,9.39
2018-08-17T11:35:10.270Z,11.11
2018-08-17T11:37:38.649Z,11.49
2018-08-17T11:40:09.411Z,9.83
2018-08-17T11:42:40.925Z,8.34
2018-08-17T11:45:21.717Z,8.34
2018-08-17T11:47:50.574Z,8.66
2018-08-17T11:50:20.855Z,10.88
2018-08-17T11:52:54.399Z,12.49
2018-08-17T11:55:24.101Z,13.28
2018-08-17T11:57:52.643Z,11.90
2018-08-17T12:00:21.195Z,11.85
2018-08-17T12:02:49.405Z,12.46
2018-08-17T12:05:17.655Z,11.94
2018-08-17T12:07:46.526Z,10.58
2018-08-17T12:10:14.920Z,9.84
2018-08-17T12:12:43.935Z,10.78
2018-08-17T12:15:12.887Z,12.22
2018-08-17T12:17:41.106Z,11.95
2018-08-17T12:20:10.761Z,12.00
2018-08-17T12:22:39.300Z,11.66
2018-08-17T12:25:08.758Z,12.51
2018-08-17T12:27:36.969Z,11.81
2018-08-17T12:30:07.542Z,12.12
2018-08-17T12:32:36.590Z,9.54
2018-08-17T12:35:05.558Z,8.52
2018-08-17T12:37:34.284Z,7.69
2018-08-17T12:40:03.270Z,8.58
2018-08-17T12:42:37.148Z,8.20
2018-08-17T12:45:11.803Z,7.23
2018-08-17T12:47:41.314Z,7.60
2018-08-17T12:50:09.594Z,8.10
2018-08-17T12:52:37.974Z,8.49
2018-08-17T12:55:06.196Z,9.56
2018-08-17T12:57:41.119Z,11.91
2018-08-17T13:00:10.336Z,11.75
2018-08-17T13:02:38.932Z,10.87
2018-08-17T13:05:08.614Z,10.26
2018-08-17T13:07:38.329Z,10.46
2018-08-17T13:10:06.642Z,9.76
2018-08-17T13:12:35.357Z,10.51
2018-08-17T13:15:05.030Z,10.06
2018-08-17T13:17:41.140Z,10.89
2018-08-17T13:20:10.091Z,12.59
2018-08-17T13:22:40.441Z,13.19
2018-08-17T13:25:08.749Z,13.25
2018-08-17T13:27:37.566Z,12.90
2018-08-17T13:30:10.085Z,13.53
2018-08-17T13:32:38.329Z,13.37
2018-08-17T13:35:07.195Z,12.91
2018-08-17T13:37:35.815Z,11.77
2018-08-17T13:40:05.636Z,11.14
2018-08-17T13:42:35.615Z,13.87
2018-08-17T13:45:05.671Z,15.32
2018-08-17T13:47:36.530Z,16.39
2018-08-17T13:50:05.503Z,15.64
2018-08-17T13:52:34.511Z,14.58
2018-08-17T13:55:04.783Z,15.11
2018-08-17T13:57:35.059Z,15.95
2018-08-17T14:00:06.923Z,16.17
2018-08-17T14:02:40.239Z,17.05
2018-08-17T14:05:12.779Z,16.47
2018-08-17T14:07:44.843Z,15.46
2018-08-17T14:10:16.289Z,14.47
2018-08-17T14:12:49.407Z,12.79
2018-08-17T14:15:22.379Z,13.43
2018-08-17T14:17:51.840Z,15.34
2018-08-17T14:20:22.071Z,17.08
2018-08-17T14:22:53.078Z,17.45
2018-08-17T14:25:26.363Z,18.94
2018-08-17T14:27:58.397Z,21.04
2018-08-17T14:30:27.089Z,21.53
2018-08-17T14:32:56.416Z,21.45
2018-08-17T14:35:25.604Z,22.53
2018-08-17T14:37:54.641Z,24.09
2018-08-17T14:40:23.542Z,24.18
2018-08-17T14:42:52.187Z,23.93
2018-08-17T14:45:20.503Z,24.25
2018-08-17T14:47:48.966Z,24.50
2018-08-17T14:50:17.863Z,25.81
2018-08-17T14:52:46.806Z,26.04
2018-08-17T14:55:15.550Z,27.66
2018-08-17T14:57:44.632Z,26.73
2018-08-17T15:00:14.093Z,27.67
2018-08-17T15:02:42.454Z,27.73
2018-08-17T15:05:12.289Z,28.40
2018-08-17T15:07:40.980Z,28.54
2018-08-17T15:10:11.732Z,28.04
2018-08-17T15:12:41.498Z,27.85
2018-08-17T15:15:10.907Z,28.81
2018-08-17T15:17:40.495Z,28.69
2018-08-17T15:20:10.547Z,28.92
2018-08-17T15:22:38.876Z,28.36
2018-08-17T15:25:07.172Z,27.35
2018-08-17T15:27:35.473Z,27.43
2018-08-17T15:30:05.445Z,28.16
2018-08-17T15:32:33.629Z,28.46
2018-08-17T15:35:01.889Z,28.21
2018-08-17T15:37:31.044Z,28.35
2018-08-17T15:39:59.857Z,29.90
2018-08-17T15:42:28.338Z,29.79
2018-08-17T15:44:56.538Z,29.89
2018-08-17T15:47:24.832Z,29.37
2018-08-17T15:50:27.419Z,28.14
2018-08-17T15:52:55.836Z,28.76
2018-08-17T15:55:24.154Z,29.96
2018-08-17T15:57:52.398Z,29.41
2018-08-17T16:00:20.524Z,29.41
2018-08-17T16:02:48.726Z,30.38
2018-08-17T16:05:16.967Z,30.50
2018-08-17T16:07:45.205Z,29.82
2018-08-17T16:10:15.191Z,31.05
2018-08-17T16:12:43.913Z,31.02
2018-08-17T16:15:12.165Z,31.29
2018-08-17T16:17:40.328Z,30.75
2018-08-17T16:20:10.493Z,30.68
2018-08-17T16:22:39.048Z,31.16
2018-08-17T16:25:08.498Z,31.37
2018-08-17T16:27:36.810Z,31.87
2018-08-17T16:30:07.603Z,31.29
2018-08-17T16:32:35.848Z,31.54
2018-08-17T16:35:04.407Z,32.13
2018-08-17T16:37:32.842Z,31.56
2018-08-17T16:40:00.941Z,31.44
2018-08-17T16:42:35.028Z,32.18
2018-08-17T16:45:04.587Z,31.58
2018-08-17T16:47:32.718Z,32.71
2018-08-17T16:50:02.057Z,32.44
2018-08-17T16:52:30.289Z,33.20
2018-08-17T16:54:58.890Z,32.91
2018-08-17T16:57:27.410Z,32.74
2018-08-17T16:59:55.602Z,32.87
2018-08-17T17:02:23.852Z,33.83
2018-08-17T17:04:52.076Z,33.63
2018-08-17T17:07:25.152Z,33.59
2018-08-17T17:09:53.334Z,33.73
2018-08-17T17:12:21.501Z,34.62
2018-08-17T17:14:49.842Z,34.14
2018-08-17T17:17:18.010Z,34.44
2018-08-17T17:19:46.365Z,35.36
2018-08-17T17:22:14.510Z,35.88
2018-08-17T17:24:42.792Z,35.70
2018-08-17T17:27:10.978Z,37.31
2018-08-17T17:29:39.136Z,37.26
2018-08-17T17:32:07.316Z,38.26
2018-08-17T17:34:35.532Z,38.61
2018-08-17T17:37:03.762Z,38.38
2018-08-17T17:39:32.044Z,38.78
2018-08-17T17:42:00.593Z,38.73
2018-08-17T17:44:28.910Z,39.48
2018-08-17T17:46:57.132Z,39.18
2018-08-17T17:49:25.431Z,39.15
2018-08-17T17:51:53.658Z,39.28
2018-08-17T17:54:24.802Z,40.07
2018-08-17T17:57:01.145Z,39.76
2018-08-17T17:59:29.341Z,39.62
2018-08-17T18:01:57.598Z,39.72
2018-08-17T18:04:30.944Z,39.75
2018-08-17T18:07:00.021Z,40.53
2018-08-17T18:09:28.261Z,40.81
2018-08-17T18:11:56.996Z,40.11
2018-08-17T18:14:25.211Z,40.86
2018-08-17T18:16:53.978Z,40.31
2018-08-17T18:19:22.385Z,41.21
2018-08-17T18:21:50.546Z,41.00
2018-08-17T18:24:18.728Z,41.39
2018-08-17T18:26:49.073Z,40.68
2018-08-17T18:29:17.985Z,40.93
2018-08-17T18:31:46.223Z,41.05
2018-08-17T18:34:14.843Z,40.98
2018-08-17T18:36:43.070Z,41.88
2018-08-17T18:39:14.647Z,41.20
2018-08-17T18:41:42.899Z,41.68
2018-08-17T18:44:11.697Z,41.37
2018-08-17T18:46:39.959Z,41.29
2018-08-17T18:49:08.331Z,41.79
2018-08-17T18:51:36.485Z,42.23
2018-08-17T18:54:05.174Z,42.30
2018-08-17T18:56:33.517Z,42.43
2018-08-17T18:59:01.748Z,41.59
2018-08-17T19:01:29.893Z,41.96
2018-08-17T19:03:58.144Z,41.43
2018-08-17T19:06:26.364Z,41.54
2018-08-17T19:08:54.764Z,42.33
2018-08-17T19:11:23.008Z,42.07
2018-08-17T19:13:51.176Z,42.98
2018-08-17T19:16:19.389Z,45.24
2018-08-17T19:18:47.646Z,45.37
2018-08-17T19:21:15.906Z,46.69
2018-08-17T19:23:44.061Z,47.80
2018-08-17T19:26:12.312Z,49.70
2018-08-17T19:28:40.466Z,49.43
2018-08-17T19:31:08.672Z,51.18
2018-08-17T19:33:36.957Z,52.82
2018-08-17T19:36:05.237Z,52.74
2018-08-17T19:38:38.604Z,53.55
2018-08-17T19:41:06.888Z,53.10
2018-08-17T19:43:35.114Z,51.47
2018-08-17T19:46:03.358Z,51.88
2018-08-17T19:48:31.501Z,49.96
2018-08-17T19:50:59.766Z,51.46
2018-08-17T19:53:28.442Z,53.39
2018-08-17T19:55:56.902Z,51.26
2018-08-17T19:58:25.395Z,53.31
2018-08-17T20:00:53.644Z,52.34
2018-08-17T20:03:21.894Z,52.74
2018-08-17T20:05:50.822Z,52.73
2018-08-17T20:08:19.743Z,52.66
2018-08-17T20:10:48.098Z,53.58
2018-08-17T20:13:16.407Z,53.90
2018-08-17T20:15:44.589Z,53.89
2018-08-17T20:18:13.341Z,53.04
2018-08-17T20:20:41.618Z,53.18
2018-08-17T20:23:09.819Z,53.78
2018-08-17T20:25:38.750Z,54.37
2018-08-17T20:28:07.901Z,52.41
2018-08-17T20:30:36.165Z,52.96
2018-08-17T20:33:15.673Z,52.79
2018-08-17T20:35:43.865Z,51.93
2018-08-17T20:38:12.120Z,53.00
2018-08-17T20:40:40.310Z,55.46
2018-08-17T20:43:08.724Z,55.96
2018-08-17T20:45:36.808Z,56.44
2018-08-17T20:48:05.068Z,55.63
2018-08-17T20:50:33.258Z,58.21
2018-08-17T20:53:01.539Z,58.63
2018-08-17T20:55:29.729Z,60.53
2018-08-17T20:57:58.532Z,61.07
2018-08-17T21:00:28.542Z,59.79
2018-08-17T21:02:56.777Z,60.35
2018-08-17T21:05:25.388Z,60.85
2018-08-17T21:07:53.649Z,60.89
2018-08-17T21:10:21.905Z,61.37
2018-08-17T21:12:50.248Z,61.10
2018-08-17T21:15:18.742Z,60.47
2018-08-17T21:17:47.603Z,60.43
2018-08-17T21:20:15.813Z,61.59
2018-08-17T21:22:44.076Z,61.78
2018-08-17T21:25:12.337Z,61.71
2018-08-17T21:27:40.530Z,60.57
2018-08-17T21:30:09.268Z,60.51
2018-08-17T21:32:37.516Z,59.86
2018-08-17T21:35:06.742Z,60.38
2018-08-17T21:37:35.089Z,60.32
2018-08-17T21:40:04.198Z,60.34
2018-08-17T21:42:34.614Z,60.37
2018-08-17T21:45:02.852Z,60.62
2018-08-17T21:47:31.010Z,60.38
2018-08-17T21:50:09.701Z,59.72
2018-08-17T21:52:38.104Z,60.62
2018-08-17T21:55:06.446Z,60.48
2018-08-17T21:57:34.880Z,60.11
2018-08-17T22:00:04.399Z,60.35
2018-08-17T22:02:32.665Z,60.07
2018-08-17T22:05:00.884Z,59.72
2018-08-17T22:07:31.334Z,58.84
2018-08-17T22:09:59.600Z,59.84
2018-08-17T22:12:27.909Z,59.68
2018-08-17T22:14:56.362Z,60.09
2018-08-17T22:17:36.368Z,59.29
2018-08-17T22:20:08.046Z,59.70
2018-08-17T22:22:36.288Z,59.82
2018-08-17T22:25:13.404Z,60.40
2018-08-17T22:27:41.627Z,60.33
2018-08-17T22:30:24.798Z,59.70
2018-08-17T22:32:53.095Z,59.67
2018-08-17T22:35:22.214Z,60.25
2018-08-17T22:37:50.506Z,60.11
2018-08-17T22:40:18.701Z,59.68
2018-08-17T22:42:48.087Z,60.09
2018-08-17T22:45:16.523Z,60.37
2018-08-17T22:47:45.041Z,60.36
2018-08-17T22:50:13.273Z,60.37
2018-08-17T22:52:41.635Z,60.66
2018-08-17T22:55:10.052Z,60.25
2018-08-17T22:57:38.403Z,61.15
2018-08-17T23:00:24.414Z,60.82
2018-08-17T23:02:55.922Z,60.39
2018-08-17T23:05:28.515Z,60.19
2018-08-17T23:07:56.736Z,60.42
2018-08-17T23:10:26.102Z,60.03
2018-08-17T23:12:54.926Z,60.94
2018-08-17T23:15:23.480Z,60.60
2018-08-17T23:17:55.752Z,60.61
2018-08-17T23:20:29.653Z,60.02
2018-08-17T23:23:00.096Z,59.60
2018-08-17T23:25:28.801Z,59.61
2018-08-17T23:27:57.719Z,59.50
2018-08-17T23:30:26.135Z,58.93
2018-08-17T23:32:54.445Z,58.55
2018-08-17T23:35:22.720Z,59.05
2018-08-17T23:37:51.512Z,58.32
2018-08-17T23:40:20.599Z,58.53
2018-08-17T23:42:48.886Z,57.87
2018-08-17T23:45:17.810Z,58.05
2018-08-17T23:47:46.052Z,58.07
2018-08-17T23:50:15.140Z,58.49
2018-08-17T23:52:43.504Z,57.85
2018-08-17T23:55:17.772Z,57.94
2018-08-17T23:57:46.924Z,58.43
